Terminal Aerodrome Forecast
Issued by NWS Newport/Morehead City, NC

Home | Current Version | Previous Version | Text Only | Print | Product List | Glossary On
Versions: 1 2 3 4 5 6 7 8 9 10 11 12 13 14 15 16 17
000
FTUS42 KMHX 251241 AAA
TAFEWN
TAF AMD
KEWN 251241Z 2513/2612 VRB03KT 6SM BR BKN006
     FM251400 29005KT P6SM BKN040
     FM252100 VRB04KT P6SM SCT025 BKN150
     FM260800 VRB03KT 5SM BR BKN050=

USA.gov is the U.S. government's official web portal to all federal, state and local government web resources and services.